sensor_id;sensor_type;location;lat;lon;timestamp;temperature;humidity
8736;DHT22;4404;49.308;12.178;2022-07-18T00:05:31;18.80;53.90
8736;DHT22;4404;49.308;12.178;2022-07-18T00:11:35;18.80;52.90
8736;DHT22;4404;49.308;12.178;2022-07-18T00:17:40;18.70;52.60
8736;DHT22;4404;49.308;12.178;2022-07-18T00:23:45;18.70;53.00
8736;DHT22;4404;49.308;12.178;2022-07-18T00:29:47;18.60;53.10
8736;DHT22;4404;49.308;12.178;2022-07-18T00:35:53;18.60;53.50
8736;DHT22;4404;49.308;12.178;2022-07-18T00:41:58;18.60;53.90
8736;DHT22;4404;49.308;12.178;2022-07-18T00:48:05;18.60;54.70
8736;DHT22;4404;49.308;12.178;2022-07-18T00:54:11;18.60;55.10
8736;DHT22;4404;49.308;12.178;2022-07-18T01:00:16;18.30;55.20
8736;DHT22;4404;49.308;12.178;2022-07-18T01:06:37;18.10;55.90
8736;DHT22;4404;49.308;12.178;2022-07-18T01:12:44;18.00;55.70
8736;DHT22;4404;49.308;12.178;2022-07-18T01:18:48;17.90;56.30
8736;DHT22;4404;49.308;12.178;2022-07-18T01:24:54;18.00;56.10
8736;DHT22;4404;49.308;12.178;2022-07-18T01:30:57;17.80;56.00
8736;DHT22;4404;49.308;12.178;2022-07-18T01:37:02;17.70;56.10
8736;DHT22;4404;49.308;12.178;2022-07-18T01:43:09;17.70;56.60
8736;DHT22;4404;49.308;12.178;2022-07-18T01:49:13;17.70;56.90
8736;DHT22;4404;49.308;12.178;2022-07-18T01:55:15;17.70;57.40
8736;DHT22;4404;49.308;12.178;2022-07-18T02:01:19;17.70;56.70
8736;DHT22;4404;49.308;12.178;2022-07-18T02:07:22;17.60;55.90
8736;DHT22;4404;49.308;12.178;2022-07-18T02:13:26;17.50;56.20
8736;DHT22;4404;49.308;12.178;2022-07-18T02:19:31;17.50;57.10
8736;DHT22;4404;49.308;12.178;2022-07-18T02:25:34;17.50;57.60
8736;DHT22;4404;49.308;12.178;2022-07-18T02:31:38;17.40;58.10
8736;DHT22;4404;49.308;12.178;2022-07-18T02:37:45;17.50;57.80
8736;DHT22;4404;49.308;12.178;2022-07-18T02:43:51;17.40;58.30
8736;DHT22;4404;49.308;12.178;2022-07-18T02:49:55;17.40;58.60
8736;DHT22;4404;49.308;12.178;2022-07-18T02:56:02;17.30;58.70
8736;DHT22;4404;49.308;12.178;2022-07-18T03:02:05;17.20;58.80
8736;DHT22;4404;49.308;12.178;2022-07-18T03:08:08;17.20;59.00
8736;DHT22;4404;49.308;12.178;2022-07-18T03:14:14;17.20;58.90
8736;DHT22;4404;49.308;12.178;2022-07-18T03:20:17;17.00;59.30
8736;DHT22;4404;49.308;12.178;2022-07-18T03:26:31;16.90;59.30
8736;DHT22;4404;49.308;12.178;2022-07-18T03:32:35;17.00;59.60
8736;DHT22;4404;49.308;12.178;2022-07-18T03:38:39;16.90;59.70
8736;DHT22;4404;49.308;12.178;2022-07-18T03:44:43;17.00;59.50
8736;DHT22;4404;49.308;12.178;2022-07-18T03:50:48;16.90;60.20
8736;DHT22;4404;49.308;12.178;2022-07-18T03:56:51;16.90;60.20
8736;DHT22;4404;49.308;12.178;2022-07-18T04:02:54;16.90;61.00
8736;DHT22;4404;49.308;12.178;2022-07-18T04:09:00;16.80;61.40
8736;DHT22;4404;49.308;12.178;2022-07-18T04:15:04;16.80;61.80
8736;DHT22;4404;49.308;12.178;2022-07-18T04:21:07;16.50;62.70
8736;DHT22;4404;49.308;12.178;2022-07-18T04:27:11;16.50;62.50
8736;DHT22;4404;49.308;12.178;2022-07-18T04:33:15;16.60;62.60
8736;DHT22;4404;49.308;12.178;2022-07-18T04:39:19;16.50;64.30
8736;DHT22;4404;49.308;12.178;2022-07-18T04:45:25;16.40;65.40
8736;DHT22;4404;49.308;12.178;2022-07-18T04:51:29;16.30;64.80
8736;DHT22;4404;49.308;12.178;2022-07-18T04:57:33;16.40;65.70
8736;DHT22;4404;49.308;12.178;2022-07-18T05:03:39;16.50;65.50
8736;DHT22;4404;49.308;12.178;2022-07-18T05:09:44;16.50;66.50
8736;DHT22;4404;49.308;12.178;2022-07-18T05:15:47;16.60;66.40
8736;DHT22;4404;49.308;12.178;2022-07-18T05:21:52;16.50;66.40
8736;DHT22;4404;49.308;12.178;2022-07-18T05:27:55;16.60;67.40
8736;DHT22;4404;49.308;12.178;2022-07-18T05:33:59;16.80;67.90
8736;DHT22;4404;49.308;12.178;2022-07-18T05:40:05;16.80;66.70
8736;DHT22;4404;49.308;12.178;2022-07-18T05:46:14;17.00;65.70
8736;DHT22;4404;49.308;12.178;2022-07-18T05:52:18;17.30;63.30
8736;DHT22;4404;49.308;12.178;2022-07-18T05:58:23;17.50;62.10
8736;DHT22;4404;49.308;12.178;2022-07-18T06:04:27;17.70;63.10
8736;DHT22;4404;49.308;12.178;2022-07-18T06:10:31;17.90;63.70
8736;DHT22;4404;49.308;12.178;2022-07-18T06:16:36;18.10;61.50
8736;DHT22;4404;49.308;12.178;2022-07-18T06:22:38;18.40;59.80
8736;DHT22;4404;49.308;12.178;2022-07-18T06:28:42;18.50;59.30
8736;DHT22;4404;49.308;12.178;2022-07-18T06:34:45;18.60;61.70
8736;DHT22;4404;49.308;12.178;2022-07-18T06:40:49;18.80;59.90
8736;DHT22;4404;49.308;12.178;2022-07-18T06:46:52;19.00;59.40
8736;DHT22;4404;49.308;12.178;2022-07-18T06:52:56;19.20;59.80
8736;DHT22;4404;49.308;12.178;2022-07-18T06:59:00;19.40;60.00
8736;DHT22;4404;49.308;12.178;2022-07-18T07:05:03;19.60;59.30
8736;DHT22;4404;49.308;12.178;2022-07-18T07:11:09;19.70;59.40
8736;DHT22;4404;49.308;12.178;2022-07-18T07:17:13;19.90;59.50
8736;DHT22;4404;49.308;12.178;2022-07-18T07:23:16;20.00;60.00
8736;DHT22;4404;49.308;12.178;2022-07-18T07:29:22;20.20;58.40
8736;DHT22;4404;49.308;12.178;2022-07-18T07:35:27;20.40;57.80
8736;DHT22;4404;49.308;12.178;2022-07-18T07:41:32;20.70;58.00
8736;DHT22;4404;49.308;12.178;2022-07-18T07:47:37;20.80;58.00
8736;DHT22;4404;49.308;12.178;2022-07-18T07:53:41;21.00;57.40
8736;DHT22;4404;49.308;12.178;2022-07-18T07:59:44;21.20;57.30
8736;DHT22;4404;49.308;12.178;2022-07-18T08:05:51;21.50;58.60
8736;DHT22;4404;49.308;12.178;2022-07-18T08:11:55;21.60;56.60
8736;DHT22;4404;49.308;12.178;2022-07-18T08:17:58;21.80;56.20
8736;DHT22;4404;49.308;12.178;2022-07-18T08:24:04;22.20;54.70
8736;DHT22;4404;49.308;12.178;2022-07-18T08:30:08;22.20;55.30
8736;DHT22;4404;49.308;12.178;2022-07-18T08:36:12;22.60;53.80
8736;DHT22;4404;49.308;12.178;2022-07-18T08:42:19;22.60;54.20
8736;DHT22;4404;49.308;12.178;2022-07-18T08:48:30;23.00;53.70
8736;DHT22;4404;49.308;12.178;2022-07-18T08:54:35;23.00;54.10
8736;DHT22;4404;49.308;12.178;2022-07-18T09:00:40;23.40;54.00
8736;DHT22;4404;49.308;12.178;2022-07-18T09:06:46;23.60;52.70
8736;DHT22;4404;49.308;12.178;2022-07-18T09:12:59;23.60;53.60
8736;DHT22;4404;49.308;12.178;2022-07-18T09:19:05;24.10;51.30
8736;DHT22;4404;49.308;12.178;2022-07-18T09:25:11;24.30;49.60
8736;DHT22;4404;49.308;12.178;2022-07-18T09:31:19;24.40;48.60
8736;DHT22;4404;49.308;12.178;2022-07-18T09:37:24;24.60;47.60
8736;DHT22;4404;49.308;12.178;2022-07-18T09:43:37;24.60;47.90
8736;DHT22;4404;49.308;12.178;2022-07-18T09:49:41;24.90;47.80
8736;DHT22;4404;49.308;12.178;2022-07-18T09:55:49;25.20;46.90
8736;DHT22;4404;49.308;12.178;2022-07-18T10:01:55;25.30;46.60
8736;DHT22;4404;49.308;12.178;2022-07-18T10:08:00;25.60;44.20
8736;DHT22;4404;49.308;12.178;2022-07-18T10:14:08;25.70;42.60
8736;DHT22;4404;49.308;12.178;2022-07-18T10:20:12;25.90;41.80
8736;DHT22;4404;49.308;12.178;2022-07-18T10:26:17;26.10;41.00
8736;DHT22;4404;49.308;12.178;2022-07-18T10:32:32;26.30;41.00
8736;DHT22;4404;49.308;12.178;2022-07-18T10:38:37;26.30;41.70
8736;DHT22;4404;49.308;12.178;2022-07-18T10:44:41;26.40;41.00
8736;DHT22;4404;49.308;12.178;2022-07-18T10:51:05;26.60;39.90
8736;DHT22;4404;49.308;12.178;2022-07-18T10:57:10;26.70;40.70
8736;DHT22;4404;49.308;12.178;2022-07-18T11:03:15;26.90;40.50
8736;DHT22;4404;49.308;12.178;2022-07-18T11:09:37;26.90;40.30
8736;DHT22;4404;49.308;12.178;2022-07-18T11:15:54;27.10;39.40
8736;DHT22;4404;49.308;12.178;2022-07-18T11:21:59;27.40;38.80
8736;DHT22;4404;49.308;12.178;2022-07-18T11:28:07;27.50;39.00
8736;DHT22;4404;49.308;12.178;2022-07-18T11:34:11;27.70;38.80
8736;DHT22;4404;49.308;12.178;2022-07-18T11:40:14;27.70;38.90
8736;DHT22;4404;49.308;12.178;2022-07-18T11:46:23;27.70;39.40
8736;DHT22;4404;49.308;12.178;2022-07-18T11:52:30;27.70;39.50
8736;DHT22;4404;49.308;12.178;2022-07-18T11:58:36;27.90;39.40
8736;DHT22;4404;49.308;12.178;2022-07-18T12:04:41;28.10;39.30
8736;DHT22;4404;49.308;12.178;2022-07-18T12:11:07;28.10;38.80
8736;DHT22;4404;49.308;12.178;2022-07-18T12:17:13;28.20;39.10
8736;DHT22;4404;49.308;12.178;2022-07-18T12:23:18;28.30;39.60
8736;DHT22;4404;49.308;12.178;2022-07-18T12:29:53;28.50;38.50
8736;DHT22;4404;49.308;12.178;2022-07-18T12:36:04;28.60;38.60
8736;DHT22;4404;49.308;12.178;2022-07-18T12:42:28;28.80;38.40
8736;DHT22;4404;49.308;12.178;2022-07-18T12:48:33;28.90;38.40
8736;DHT22;4404;49.308;12.178;2022-07-18T12:54:38;29.10;38.30
8736;DHT22;4404;49.308;12.178;2022-07-18T13:00:42;29.40;37.60
8736;DHT22;4404;49.308;12.178;2022-07-18T13:06:47;29.40;37.50
8736;DHT22;4404;49.308;12.178;2022-07-18T13:12:50;29.40;37.50
8736;DHT22;4404;49.308;12.178;2022-07-18T13:18:55;29.60;37.50
8736;DHT22;4404;49.308;12.178;2022-07-18T13:24:57;29.60;37.60
8736;DHT22;4404;49.308;12.178;2022-07-18T13:31:01;29.60;38.00
8736;DHT22;4404;49.308;12.178;2022-07-18T13:37:05;29.70;38.10
8736;DHT22;4404;49.308;12.178;2022-07-18T13:43:08;29.60;38.30
8736;DHT22;4404;49.308;12.178;2022-07-18T13:49:12;29.90;37.40
8736;DHT22;4404;49.308;12.178;2022-07-18T13:55:18;29.90;37.40
8736;DHT22;4404;49.308;12.178;2022-07-18T14:01:21;29.80;37.10
8736;DHT22;4404;49.308;12.178;2022-07-18T14:07:24;29.80;37.60
8736;DHT22;4404;49.308;12.178;2022-07-18T14:13:29;29.90;37.40
8736;DHT22;4404;49.308;12.178;2022-07-18T14:19:34;30.10;36.80
8736;DHT22;4404;49.308;12.178;2022-07-18T14:25:38;30.20;37.40
8736;DHT22;4404;49.308;12.178;2022-07-18T14:31:43;30.10;36.30
8736;DHT22;4404;49.308;12.178;2022-07-18T14:37:46;30.00;37.00
8736;DHT22;4404;49.308;12.178;2022-07-18T14:49:53;29.90;37.90
8736;DHT22;4404;49.308;12.178;2022-07-18T14:55:56;29.90;38.40
8736;DHT22;4404;49.308;12.178;2022-07-18T15:01:59;30.40;38.10
8736;DHT22;4404;49.308;12.178;2022-07-18T15:08:08;30.20;36.80
8736;DHT22;4404;49.308;12.178;2022-07-18T15:14:12;30.10;37.00
8736;DHT22;4404;49.308;12.178;2022-07-18T15:20:16;30.00;38.10
8736;DHT22;4404;49.308;12.178;2022-07-18T15:26:21;29.90;38.50
8736;DHT22;4404;49.308;12.178;2022-07-18T15:32:25;29.70;38.20
8736;DHT22;4404;49.308;12.178;2022-07-18T15:38:29;29.70;37.30
8736;DHT22;4404;49.308;12.178;2022-07-18T15:44:34;29.70;37.60
8736;DHT22;4404;49.308;12.178;2022-07-18T15:50:38;29.70;38.20
8736;DHT22;4404;49.308;12.178;2022-07-18T15:56:45;29.90;38.60
8736;DHT22;4404;49.308;12.178;2022-07-18T16:02:51;29.70;38.30
8736;DHT22;4404;49.308;12.178;2022-07-18T16:08:54;29.60;38.00
8736;DHT22;4404;49.308;12.178;2022-07-18T16:14:57;29.60;38.00
8736;DHT22;4404;49.308;12.178;2022-07-18T16:21:02;29.60;38.40
8736;DHT22;4404;49.308;12.178;2022-07-18T16:27:11;29.60;39.40
8736;DHT22;4404;49.308;12.178;2022-07-18T16:33:14;29.50;38.70
8736;DHT22;4404;49.308;12.178;2022-07-18T16:39:19;29.40;39.30
8736;DHT22;4404;49.308;12.178;2022-07-18T16:45:24;29.40;40.00
8736;DHT22;4404;49.308;12.178;2022-07-18T16:51:29;29.40;40.20
8736;DHT22;4404;49.308;12.178;2022-07-18T16:57:34;29.40;40.70
8736;DHT22;4404;49.308;12.178;2022-07-18T17:03:40;29.40;36.90
8736;DHT22;4404;49.308;12.178;2022-07-18T17:09:45;29.40;37.50
8736;DHT22;4404;49.308;12.178;2022-07-18T17:15:52;29.30;40.00
8736;DHT22;4404;49.308;12.178;2022-07-18T17:21:57;29.10;38.50
8736;DHT22;4404;49.308;12.178;2022-07-18T17:28:02;28.90;41.50
8736;DHT22;4404;49.308;12.178;2022-07-18T17:34:07;28.80;45.00
8736;DHT22;4404;49.308;12.178;2022-07-18T17:40:12;28.60;46.00
8736;DHT22;4404;49.308;12.178;2022-07-18T17:46:17;28.70;46.60
8736;DHT22;4404;49.308;12.178;2022-07-18T17:52:24;28.40;46.80
8736;DHT22;4404;49.308;12.178;2022-07-18T17:58:27;28.30;48.60
8736;DHT22;4404;49.308;12.178;2022-07-18T18:04:32;28.30;49.20
8736;DHT22;4404;49.308;12.178;2022-07-18T18:10:38;27.80;47.40
8736;DHT22;4404;49.308;12.178;2022-07-18T18:16:41;27.60;49.00
8736;DHT22;4404;49.308;12.178;2022-07-18T18:22:44;27.40;49.00
8736;DHT22;4404;49.308;12.178;2022-07-18T18:28:49;27.20;49.30
8736;DHT22;4404;49.308;12.178;2022-07-18T18:34:53;27.00;50.30
8736;DHT22;4404;49.308;12.178;2022-07-18T18:40:57;26.90;51.10
8736;DHT22;4404;49.308;12.178;2022-07-18T18:47:04;26.70;51.50
8736;DHT22;4404;49.308;12.178;2022-07-18T18:53:08;26.60;51.70
8736;DHT22;4404;49.308;12.178;2022-07-18T18:59:11;26.40;51.30
8736;DHT22;4404;49.308;12.178;2022-07-18T19:05:21;26.40;51.70
8736;DHT22;4404;49.308;12.178;2022-07-18T19:11:25;26.00;51.70
8736;DHT22;4404;49.308;12.178;2022-07-18T19:17:29;25.80;53.40
8736;DHT22;4404;49.308;12.178;2022-07-18T19:23:34;25.80;54.20
8736;DHT22;4404;49.308;12.178;2022-07-18T19:29:37;25.60;59.90
8736;DHT22;4404;49.308;12.178;2022-07-18T19:35:43;25.20;61.00
8736;DHT22;4404;49.308;12.178;2022-07-18T19:41:49;24.90;61.20
8736;DHT22;4404;49.308;12.178;2022-07-18T19:47:52;24.50;58.10
8736;DHT22;4404;49.308;12.178;2022-07-18T19:53:54;24.40;58.60
8736;DHT22;4404;49.308;12.178;2022-07-18T19:59:58;24.20;57.50
8736;DHT22;4404;49.308;12.178;2022-07-18T20:06:02;24.10;57.40
8736;DHT22;4404;49.308;12.178;2022-07-18T20:12:07;24.00;56.90
8736;DHT22;4404;49.308;12.178;2022-07-18T20:18:12;24.00;57.50
8736;DHT22;4404;49.308;12.178;2022-07-18T20:24:16;23.90;57.90
8736;DHT22;4404;49.308;12.178;2022-07-18T20:30:20;23.90;57.30
8736;DHT22;4404;49.308;12.178;2022-07-18T20:36:25;23.80;57.60
8736;DHT22;4404;49.308;12.178;2022-07-18T20:42:28;23.70;57.50
8736;DHT22;4404;49.308;12.178;2022-07-18T20:48:34;23.70;57.50
8736;DHT22;4404;49.308;12.178;2022-07-18T20:54:41;22.40;56.90
8736;DHT22;4404;49.308;12.178;2022-07-18T21:00:45;23.60;57.30
8736;DHT22;4404;49.308;12.178;2022-07-18T21:06:48;23.40;57.50
8736;DHT22;4404;49.308;12.178;2022-07-18T21:12:58;23.40;58.00
8736;DHT22;4404;49.308;12.178;2022-07-18T21:19:03;23.30;58.60
8736;DHT22;4404;49.308;12.178;2022-07-18T21:25:10;23.10;58.20
8736;DHT22;4404;49.308;12.178;2022-07-18T21:31:14;22.90;58.10
8736;DHT22;4404;49.308;12.178;2022-07-18T21:37:18;22.80;58.00
8736;DHT22;4404;49.308;12.178;2022-07-18T21:43:22;22.80;58.00
8736;DHT22;4404;49.308;12.178;2022-07-18T21:49:44;22.80;57.60
8736;DHT22;4404;49.308;12.178;2022-07-18T21:55:47;22.80;57.00
8736;DHT22;4404;49.308;12.178;2022-07-18T22:01:51;22.60;56.90
8736;DHT22;4404;49.308;12.178;2022-07-18T22:07:57;22.60;57.60
8736;DHT22;4404;49.308;12.178;2022-07-18T22:14:02;22.50;56.70
8736;DHT22;4404;49.308;12.178;2022-07-18T22:20:06;22.40;57.10
8736;DHT22;4404;49.308;12.178;2022-07-18T22:26:14;22.40;57.40
8736;DHT22;4404;49.308;12.178;2022-07-18T22:32:17;22.30;57.70
8736;DHT22;4404;49.308;12.178;2022-07-18T22:38:21;22.30;57.50
8736;DHT22;4404;49.308;12.178;2022-07-18T22:44:25;22.30;57.60
8736;DHT22;4404;49.308;12.178;2022-07-18T22:50:34;22.30;58.00
8736;DHT22;4404;49.308;12.178;2022-07-18T22:56:37;22.20;57.50
8736;DHT22;4404;49.308;12.178;2022-07-18T23:02:43;22.10;57.70
8736;DHT22;4404;49.308;12.178;2022-07-18T23:08:46;22.10;58.10
8736;DHT22;4404;49.308;12.178;2022-07-18T23:14:49;22.00;57.40
8736;DHT22;4404;49.308;12.178;2022-07-18T23:20:53;21.90;58.50
8736;DHT22;4404;49.308;12.178;2022-07-18T23:26:56;21.80;57.90
8736;DHT22;4404;49.308;12.178;2022-07-18T23:32:59;21.80;58.50
8736;DHT22;4404;49.308;12.178;2022-07-18T23:39:04;21.60;58.60
8736;DHT22;4404;49.308;12.178;2022-07-18T23:45:12;21.50;59.00
8736;DHT22;4404;49.308;12.178;2022-07-18T23:51:15;21.50;59.50
8736;DHT22;4404;49.308;12.178;2022-07-18T23:57:19;21.50;59.70
